sensor_id;sensor_type;location;lat;lon;timestamp;temperature;humidity
20091;DHT22;10205;49.678;6.560;2023-04-01T00:01:51;14.50;65.50
20091;DHT22;10205;49.678;6.560;2023-04-01T00:04:18;14.50;65.80
20091;DHT22;10205;49.678;6.560;2023-04-01T00:06:46;14.50;65.80
20091;DHT22;10205;49.678;6.560;2023-04-01T00:09:14;14.50;65.60
20091;DHT22;10205;49.678;6.560;2023-04-01T00:11:41;14.50;65.60
20091;DHT22;10205;49.678;6.560;2023-04-01T00:14:12;14.50;65.60
20091;DHT22;10205;49.678;6.560;2023-04-01T00:16:39;14.50;65.60
20091;DHT22;10205;49.678;6.560;2023-04-01T00:19:07;14.50;65.50
20091;DHT22;10205;49.678;6.560;2023-04-01T00:21:35;14.50;65.60
20091;DHT22;10205;49.678;6.560;2023-04-01T00:24:02;14.40;65.60
20091;DHT22;10205;49.678;6.560;2023-04-01T00:26:29;14.40;65.60
20091;DHT22;10205;49.678;6.560;2023-04-01T00:28:57;14.40;65.60
20091;DHT22;10205;49.678;6.560;2023-04-01T00:31:28;14.40;65.70
20091;DHT22;10205;49.678;6.560;2023-04-01T00:33:55;14.40;65.80
20091;DHT22;10205;49.678;6.560;2023-04-01T00:36:24;14.40;65.70
20091;DHT22;10205;49.678;6.560;2023-04-01T00:38:51;14.40;66.70
20091;DHT22;10205;49.678;6.560;2023-04-01T00:41:19;14.40;66.10
20091;DHT22;10205;49.678;6.560;2023-04-01T00:43:49;14.30;66.70
20091;DHT22;10205;49.678;6.560;2023-04-01T00:46:19;14.30;65.90
20091;DHT22;10205;49.678;6.560;2023-04-01T00:48:49;14.30;65.90
20091;DHT22;10205;49.678;6.560;2023-04-01T00:51:21;14.30;65.70
20091;DHT22;10205;49.678;6.560;2023-04-01T00:53:54;14.30;65.90
20091;DHT22;10205;49.678;6.560;2023-04-01T00:56:25;14.30;66.00
20091;DHT22;10205;49.678;6.560;2023-04-01T00:59:02;14.30;66.10
20091;DHT22;10205;49.678;6.560;2023-04-01T01:01:34;14.30;66.10
20091;DHT22;10205;49.678;6.560;2023-04-01T01:04:02;14.30;66.10
20091;DHT22;10205;49.678;6.560;2023-04-01T01:06:39;14.30;66.10
20091;DHT22;10205;49.678;6.560;2023-04-01T01:09:23;14.20;66.10
20091;DHT22;10205;49.678;6.560;2023-04-01T01:12:04;14.20;66.20
20091;DHT22;10205;49.678;6.560;2023-04-01T01:14:55;14.20;66.20
20091;DHT22;10205;49.678;6.560;2023-04-01T01:17:36;14.20;66.30
20091;DHT22;10205;49.678;6.560;2023-04-01T01:24:03;14.20;66.30
20091;DHT22;10205;49.678;6.560;2023-04-01T01:26:51;14.20;66.10
20091;DHT22;10205;49.678;6.560;2023-04-01T01:29:39;14.20;66.00
20091;DHT22;10205;49.678;6.560;2023-04-01T01:32:25;14.20;66.00
20091;DHT22;10205;49.678;6.560;2023-04-01T01:35:14;14.10;65.90
20091;DHT22;10205;49.678;6.560;2023-04-01T01:37:50;14.20;65.90
20091;DHT22;10205;49.678;6.560;2023-04-01T01:40:21;14.20;66.00
20091;DHT22;10205;49.678;6.560;2023-04-01T01:42:54;14.20;66.00
20091;DHT22;10205;49.678;6.560;2023-04-01T01:45:26;14.10;65.90
20091;DHT22;10205;49.678;6.560;2023-04-01T01:47:56;14.10;66.00
20091;DHT22;10205;49.678;6.560;2023-04-01T01:50:26;14.10;66.00
20091;DHT22;10205;49.678;6.560;2023-04-01T01:53:01;14.10;66.00
20091;DHT22;10205;49.678;6.560;2023-04-01T01:55:31;14.10;66.10
20091;DHT22;10205;49.678;6.560;2023-04-01T01:58:04;14.10;66.10
20091;DHT22;10205;49.678;6.560;2023-04-01T02:00:36;14.10;66.20
20091;DHT22;10205;49.678;6.560;2023-04-01T02:03:04;14.10;66.10
20091;DHT22;10205;49.678;6.560;2023-04-01T02:05:34;14.10;66.20
20091;DHT22;10205;49.678;6.560;2023-04-01T02:08:06;14.10;66.30
20091;DHT22;10205;49.678;6.560;2023-04-01T02:10:39;14.10;66.30
20091;DHT22;10205;49.678;6.560;2023-04-01T02:13:14;14.10;66.50
20091;DHT22;10205;49.678;6.560;2023-04-01T02:15:47;14.10;66.70
20091;DHT22;10205;49.678;6.560;2023-04-01T02:18:21;14.10;66.70
20091;DHT22;10205;49.678;6.560;2023-04-01T02:20:51;14.10;66.60
20091;DHT22;10205;49.678;6.560;2023-04-01T02:23:19;14.10;66.70
20091;DHT22;10205;49.678;6.560;2023-04-01T02:25:47;14.00;66.80
20091;DHT22;10205;49.678;6.560;2023-04-01T02:28:16;14.10;67.00
20091;DHT22;10205;49.678;6.560;2023-04-01T02:30:48;14.00;67.10
20091;DHT22;10205;49.678;6.560;2023-04-01T02:33:17;14.00;67.10
20091;DHT22;10205;49.678;6.560;2023-04-01T02:35:46;14.00;67.20
20091;DHT22;10205;49.678;6.560;2023-04-01T02:38:15;14.00;67.20
20091;DHT22;10205;49.678;6.560;2023-04-01T02:40:45;14.00;67.20
20091;DHT22;10205;49.678;6.560;2023-04-01T02:43:14;14.00;67.30
20091;DHT22;10205;49.678;6.560;2023-04-01T02:45:41;14.00;67.40
20091;DHT22;10205;49.678;6.560;2023-04-01T02:48:08;14.00;67.30
20091;DHT22;10205;49.678;6.560;2023-04-01T02:50:36;14.00;67.40
20091;DHT22;10205;49.678;6.560;2023-04-01T02:53:03;13.90;67.40
20091;DHT22;10205;49.678;6.560;2023-04-01T02:55:33;14.00;67.60
20091;DHT22;10205;49.678;6.560;2023-04-01T02:58:01;13.90;67.50
20091;DHT22;10205;49.678;6.560;2023-04-01T03:00:29;13.90;67.60
20091;DHT22;10205;49.678;6.560;2023-04-01T03:02:56;13.90;67.50
20091;DHT22;10205;49.678;6.560;2023-04-01T03:05:23;13.90;67.50
20091;DHT22;10205;49.678;6.560;2023-04-01T03:07:51;13.90;67.50
20091;DHT22;10205;49.678;6.560;2023-04-01T03:10:18;13.90;67.60
20091;DHT22;10205;49.678;6.560;2023-04-01T03:12:47;13.90;67.70
20091;DHT22;10205;49.678;6.560;2023-04-01T03:15:14;13.90;67.80
20091;DHT22;10205;49.678;6.560;2023-04-01T03:17:42;13.80;67.70
20091;DHT22;10205;49.678;6.560;2023-04-01T03:20:10;13.80;67.80
20091;DHT22;10205;49.678;6.560;2023-04-01T03:22:38;13.80;67.80
20091;DHT22;10205;49.678;6.560;2023-04-01T03:25:06;13.80;67.80
20091;DHT22;10205;49.678;6.560;2023-04-01T03:27:35;13.80;67.80
20091;DHT22;10205;49.678;6.560;2023-04-01T03:30:04;13.80;67.80
20091;DHT22;10205;49.678;6.560;2023-04-01T03:32:33;13.80;67.90
20091;DHT22;10205;49.678;6.560;2023-04-01T03:35:00;13.80;67.90
20091;DHT22;10205;49.678;6.560;2023-04-01T03:37:28;13.70;67.80
20091;DHT22;10205;49.678;6.560;2023-04-01T03:39:55;13.70;67.90
20091;DHT22;10205;49.678;6.560;2023-04-01T03:42:22;13.70;67.90
20091;DHT22;10205;49.678;6.560;2023-04-01T03:44:49;13.70;68.00
20091;DHT22;10205;49.678;6.560;2023-04-01T03:47:18;13.70;68.00
20091;DHT22;10205;49.678;6.560;2023-04-01T03:49:45;13.70;68.10
20091;DHT22;10205;49.678;6.560;2023-04-01T03:52:12;13.70;68.30
20091;DHT22;10205;49.678;6.560;2023-04-01T03:54:39;13.60;68.30
20091;DHT22;10205;49.678;6.560;2023-04-01T03:57:06;13.60;68.30
20091;DHT22;10205;49.678;6.560;2023-04-01T03:59:34;13.60;68.30
20091;DHT22;10205;49.678;6.560;2023-04-01T04:02:01;13.70;68.30
20091;DHT22;10205;49.678;6.560;2023-04-01T04:04:30;13.60;68.20
20091;DHT22;10205;49.678;6.560;2023-04-01T04:06:58;13.60;68.30
20091;DHT22;10205;49.678;6.560;2023-04-01T04:09:25;13.60;68.20
20091;DHT22;10205;49.678;6.560;2023-04-01T04:11:52;13.60;68.30
20091;DHT22;10205;49.678;6.560;2023-04-01T04:14:19;13.60;68.40
20091;DHT22;10205;49.678;6.560;2023-04-01T04:16:46;13.60;68.30
20091;DHT22;10205;49.678;6.560;2023-04-01T04:19:14;13.60;68.40
20091;DHT22;10205;49.678;6.560;2023-04-01T04:21:42;13.60;68.40
20091;DHT22;10205;49.678;6.560;2023-04-01T04:24:10;13.60;68.40
20091;DHT22;10205;49.678;6.560;2023-04-01T04:26:37;13.60;68.40
20091;DHT22;10205;49.678;6.560;2023-04-01T04:29:04;13.60;68.50
20091;DHT22;10205;49.678;6.560;2023-04-01T04:31:33;13.60;68.50
20091;DHT22;10205;49.678;6.560;2023-04-01T04:34:00;13.60;68.60
20091;DHT22;10205;49.678;6.560;2023-04-01T04:36:28;13.60;68.60
20091;DHT22;10205;49.678;6.560;2023-04-01T04:38:57;13.60;68.70
20091;DHT22;10205;49.678;6.560;2023-04-01T04:41:27;13.60;68.80
20091;DHT22;10205;49.678;6.560;2023-04-01T04:43:55;13.50;68.80
20091;DHT22;10205;49.678;6.560;2023-04-01T04:46:24;13.50;68.90
20091;DHT22;10205;49.678;6.560;2023-04-01T04:48:51;13.50;68.90
20091;DHT22;10205;49.678;6.560;2023-04-01T04:51:20;13.50;68.90
20091;DHT22;10205;49.678;6.560;2023-04-01T04:53:47;13.50;69.00
20091;DHT22;10205;49.678;6.560;2023-04-01T04:56:19;13.50;69.20
20091;DHT22;10205;49.678;6.560;2023-04-01T04:58:48;13.50;69.30
20091;DHT22;10205;49.678;6.560;2023-04-01T05:01:16;13.50;69.20
20091;DHT22;10205;49.678;6.560;2023-04-01T05:03:45;13.50;69.30
20091;DHT22;10205;49.678;6.560;2023-04-01T05:06:13;13.50;69.30
20091;DHT22;10205;49.678;6.560;2023-04-01T05:08:42;13.50;69.30
20091;DHT22;10205;49.678;6.560;2023-04-01T05:11:13;13.50;69.30
20091;DHT22;10205;49.678;6.560;2023-04-01T05:13:44;13.50;69.40
20091;DHT22;10205;49.678;6.560;2023-04-01T05:16:13;13.50;69.40
20091;DHT22;10205;49.678;6.560;2023-04-01T05:18:41;13.50;69.40
20091;DHT22;10205;49.678;6.560;2023-04-01T05:21:10;13.50;69.50
20091;DHT22;10205;49.678;6.560;2023-04-01T05:23:38;13.50;69.60
20091;DHT22;10205;49.678;6.560;2023-04-01T05:26:06;13.50;69.60
20091;DHT22;10205;49.678;6.560;2023-04-01T05:28:34;13.50;69.60
20091;DHT22;10205;49.678;6.560;2023-04-01T05:31:04;13.50;69.60
20091;DHT22;10205;49.678;6.560;2023-04-01T05:33:32;13.50;69.70
20091;DHT22;10205;49.678;6.560;2023-04-01T05:36:06;13.50;69.70
20091;DHT22;10205;49.678;6.560;2023-04-01T05:38:34;13.50;70.00
20091;DHT22;10205;49.678;6.560;2023-04-01T05:41:03;13.50;69.70
20091;DHT22;10205;49.678;6.560;2023-04-01T05:43:30;13.50;69.80
20091;DHT22;10205;49.678;6.560;2023-04-01T05:45:58;13.50;69.80
20091;DHT22;10205;49.678;6.560;2023-04-01T05:48:26;13.50;70.70
20091;DHT22;10205;49.678;6.560;2023-04-01T05:50:53;13.50;69.80
20091;DHT22;10205;49.678;6.560;2023-04-01T05:53:20;13.50;69.80
20091;DHT22;10205;49.678;6.560;2023-04-01T05:55:48;13.50;69.80
20091;DHT22;10205;49.678;6.560;2023-04-01T05:58:15;13.50;70.00
20091;DHT22;10205;49.678;6.560;2023-04-01T06:00:42;13.50;70.10
20091;DHT22;10205;49.678;6.560;2023-04-01T06:03:10;13.50;70.00
20091;DHT22;10205;49.678;6.560;2023-04-01T06:05:43;13.50;70.00
20091;DHT22;10205;49.678;6.560;2023-04-01T06:08:12;13.40;70.20
20091;DHT22;10205;49.678;6.560;2023-04-01T06:10:53;13.50;70.20
20091;DHT22;10205;49.678;6.560;2023-04-01T06:13:37;13.50;70.50
20091;DHT22;10205;49.678;6.560;2023-04-01T06:16:25;13.50;70.40
20091;DHT22;10205;49.678;6.560;2023-04-01T06:19:27;13.50;70.30
20091;DHT22;10205;49.678;6.560;2023-04-01T06:22:23;13.50;71.50
20091;DHT22;10205;49.678;6.560;2023-04-01T06:25:21;13.50;70.50
20091;DHT22;10205;49.678;6.560;2023-04-01T06:28:17;13.50;70.60
20091;DHT22;10205;49.678;6.560;2023-04-01T06:31:00;13.50;70.30
20091;DHT22;10205;49.678;6.560;2023-04-01T06:33:44;13.50;70.30
20091;DHT22;10205;49.678;6.560;2023-04-01T06:36:44;13.50;70.50
20091;DHT22;10205;49.678;6.560;2023-04-01T06:39:32;13.50;70.70
20091;DHT22;10205;49.678;6.560;2023-04-01T06:42:43;13.50;70.60
20091;DHT22;10205;49.678;6.560;2023-04-01T06:45:28;13.50;70.70
20091;DHT22;10205;49.678;6.560;2023-04-01T06:48:13;13.50;71.70
20091;DHT22;10205;49.678;6.560;2023-04-01T06:51:06;13.50;70.80
20091;DHT22;10205;49.678;6.560;2023-04-01T06:53:47;13.50;70.70
20091;DHT22;10205;49.678;6.560;2023-04-01T06:56:25;13.50;70.90
20091;DHT22;10205;49.678;6.560;2023-04-01T06:58:57;13.50;70.70
20091;DHT22;10205;49.678;6.560;2023-04-01T07:01:31;13.50;70.70
20091;DHT22;10205;49.678;6.560;2023-04-01T07:04:05;13.50;70.90
20091;DHT22;10205;49.678;6.560;2023-04-01T07:06:39;13.50;71.10
20091;DHT22;10205;49.678;6.560;2023-04-01T07:09:24;13.50;71.00
20091;DHT22;10205;49.678;6.560;2023-04-01T07:12:00;13.50;71.10
20091;DHT22;10205;49.678;6.560;2023-04-01T07:14:33;13.60;71.30
20091;DHT22;10205;49.678;6.560;2023-04-01T07:17:06;13.60;71.10
20091;DHT22;10205;49.678;6.560;2023-04-01T07:19:45;13.60;71.10
20091;DHT22;10205;49.678;6.560;2023-04-01T07:22:23;13.60;71.30
20091;DHT22;10205;49.678;6.560;2023-04-01T07:24:59;13.60;71.30
20091;DHT22;10205;49.678;6.560;2023-04-01T07:27:31;13.60;71.10
20091;DHT22;10205;49.678;6.560;2023-04-01T07:29:58;13.60;71.10
20091;DHT22;10205;49.678;6.560;2023-04-01T07:32:35;13.60;71.20
20091;DHT22;10205;49.678;6.560;2023-04-01T07:35:20;13.60;72.40
20091;DHT22;10205;49.678;6.560;2023-04-01T07:38:09;13.60;71.90
20091;DHT22;10205;49.678;6.560;2023-04-01T07:40:49;13.60;71.90
20091;DHT22;10205;49.678;6.560;2023-04-01T07:43:38;13.60;71.60
20091;DHT22;10205;49.678;6.560;2023-04-01T07:46:30;13.60;72.00
20091;DHT22;10205;49.678;6.560;2023-04-01T07:49:12;13.70;71.80
20091;DHT22;10205;49.678;6.560;2023-04-01T07:51:48;13.70;71.80
20091;DHT22;10205;49.678;6.560;2023-04-01T07:54:29;13.70;71.70
20091;DHT22;10205;49.678;6.560;2023-04-01T07:57:09;13.70;71.70
20091;DHT22;10205;49.678;6.560;2023-04-01T07:59:50;13.80;71.70
20091;DHT22;10205;49.678;6.560;2023-04-01T08:02:32;13.80;71.80
20091;DHT22;10205;49.678;6.560;2023-04-01T08:05:15;13.70;71.60
20091;DHT22;10205;49.678;6.560;2023-04-01T08:07:57;13.80;71.70
20091;DHT22;10205;49.678;6.560;2023-04-01T08:10:37;13.80;71.90
20091;DHT22;10205;49.678;6.560;2023-04-01T08:13:15;13.80;71.90
20091;DHT22;10205;49.678;6.560;2023-04-01T08:16:01;13.80;72.70
20091;DHT22;10205;49.678;6.560;2023-04-01T08:18:40;13.90;72.00
20091;DHT22;10205;49.678;6.560;2023-04-01T08:21:15;13.90;71.80
20091;DHT22;10205;49.678;6.560;2023-04-01T08:23:51;13.90;71.60
20091;DHT22;10205;49.678;6.560;2023-04-01T08:26:28;13.90;71.70
20091;DHT22;10205;49.678;6.560;2023-04-01T08:29:05;13.90;72.10
20091;DHT22;10205;49.678;6.560;2023-04-01T08:31:44;13.90;71.80
20091;DHT22;10205;49.678;6.560;2023-04-01T08:34:21;13.90;71.70
20091;DHT22;10205;49.678;6.560;2023-04-01T08:36:53;13.90;71.60
20091;DHT22;10205;49.678;6.560;2023-04-01T08:39:31;14.00;71.50
20091;DHT22;10205;49.678;6.560;2023-04-01T08:42:27;14.00;71.70
20091;DHT22;10205;49.678;6.560;2023-04-01T08:45:20;14.00;72.10
20091;DHT22;10205;49.678;6.560;2023-04-01T08:48:12;14.00;71.80
20091;DHT22;10205;49.678;6.560;2023-04-01T08:54:08;14.00;72.30
20091;DHT22;10205;49.678;6.560;2023-04-01T08:56:59;14.10;72.30
20091;DHT22;10205;49.678;6.560;2023-04-01T09:09:25;14.10;72.20
20091;DHT22;10205;49.678;6.560;2023-04-01T09:12:35;14.20;72.10
20091;DHT22;10205;49.678;6.560;2023-04-01T09:15:42;14.20;72.20
20091;DHT22;10205;49.678;6.560;2023-04-01T09:18:45;14.20;72.20
20091;DHT22;10205;49.678;6.560;2023-04-01T09:25:12;14.20;72.30
20091;DHT22;10205;49.678;6.560;2023-04-01T09:27:56;14.30;72.10
20091;DHT22;10205;49.678;6.560;2023-04-01T09:30:47;14.30;71.90
20091;DHT22;10205;49.678;6.560;2023-04-01T09:34:17;14.30;72.00
20091;DHT22;10205;49.678;6.560;2023-04-01T09:37:13;14.30;72.00
20091;DHT22;10205;49.678;6.560;2023-04-01T09:39:57;14.30;71.70
20091;DHT22;10205;49.678;6.560;2023-04-01T09:42:43;14.40;71.60
20091;DHT22;10205;49.678;6.560;2023-04-01T09:45:29;14.40;71.40
20091;DHT22;10205;49.678;6.560;2023-04-01T09:48:19;14.40;71.60
20091;DHT22;10205;49.678;6.560;2023-04-01T09:51:05;14.40;71.40
20091;DHT22;10205;49.678;6.560;2023-04-01T09:53:52;14.40;71.80
20091;DHT22;10205;49.678;6.560;2023-04-01T09:56:58;14.40;71.90
20091;DHT22;10205;49.678;6.560;2023-04-01T10:00:27;14.40;71.80
20091;DHT22;10205;49.678;6.560;2023-04-01T10:09:51;14.50;71.50
20091;DHT22;10205;49.678;6.560;2023-04-01T10:16:33;14.60;71.70
20091;DHT22;10205;49.678;6.560;2023-04-01T10:36:16;14.70;71.60
20091;DHT22;10205;49.678;6.560;2023-04-01T10:39:38;14.70;71.50
20091;DHT22;10205;49.678;6.560;2023-04-01T10:46:17;14.80;71.40
20091;DHT22;10205;49.678;6.560;2023-04-01T10:49:55;14.80;71.50
20091;DHT22;10205;49.678;6.560;2023-04-01T10:53:07;14.80;71.30
20091;DHT22;10205;49.678;6.560;2023-04-01T10:56:33;14.90;71.50
20091;DHT22;10205;49.678;6.560;2023-04-01T10:59:42;14.90;71.10
20091;DHT22;10205;49.678;6.560;2023-04-01T11:02:56;15.00;71.50
20091;DHT22;10205;49.678;6.560;2023-04-01T11:06:08;15.00;71.40
20091;DHT22;10205;49.678;6.560;2023-04-01T11:12:51;15.10;71.30
20091;DHT22;10205;49.678;6.560;2023-04-01T11:16:21;15.10;71.00
20091;DHT22;10205;49.678;6.560;2023-04-01T11:19:44;15.10;71.30
20091;DHT22;10205;49.678;6.560;2023-04-01T11:22:46;15.20;71.00
20091;DHT22;10205;49.678;6.560;2023-04-01T11:25:41;15.20;71.00
20091;DHT22;10205;49.678;6.560;2023-04-01T11:31:58;15.20;70.60
20091;DHT22;10205;49.678;6.560;2023-04-01T11:34:43;15.30;70.60
20091;DHT22;10205;49.678;6.560;2023-04-01T11:37:35;15.30;70.70
20091;DHT22;10205;49.678;6.560;2023-04-01T11:40:17;15.30;70.70
20091;DHT22;10205;49.678;6.560;2023-04-01T11:42:57;15.40;70.80
20091;DHT22;10205;49.678;6.560;2023-04-01T11:45:39;15.40;70.50
20091;DHT22;10205;49.678;6.560;2023-04-01T11:48:33;15.40;70.50
20091;DHT22;10205;49.678;6.560;2023-04-01T11:54:33;15.50;70.50
20091;DHT22;10205;49.678;6.560;2023-04-01T11:57:22;15.50;70.20
20091;DHT22;10205;49.678;6.560;2023-04-01T12:00:25;15.50;70.10
20091;DHT22;10205;49.678;6.560;2023-04-01T12:03:27;15.60;69.90
20091;DHT22;10205;49.678;6.560;2023-04-01T12:06:14;15.60;69.70
20091;DHT22;10205;49.678;6.560;2023-04-01T12:08:51;15.70;69.70
20091;DHT22;10205;49.678;6.560;2023-04-01T12:11:34;15.60;69.50
20091;DHT22;10205;49.678;6.560;2023-04-01T12:14:18;15.70;69.60
20091;DHT22;10205;49.678;6.560;2023-04-01T12:17:03;15.70;69.60
20091;DHT22;10205;49.678;6.560;2023-04-01T12:19:42;15.60;69.40
20091;DHT22;10205;49.678;6.560;2023-04-01T12:22:30;15.60;69.60
20091;DHT22;10205;49.678;6.560;2023-04-01T12:25:28;15.70;69.70
20091;DHT22;10205;49.678;6.560;2023-04-01T12:28:28;15.70;69.80
20091;DHT22;10205;49.678;6.560;2023-04-01T12:31:12;15.70;69.80
20091;DHT22;10205;49.678;6.560;2023-04-01T12:33:55;15.70;69.80
20091;DHT22;10205;49.678;6.560;2023-04-01T12:36:50;15.70;69.90
20091;DHT22;10205;49.678;6.560;2023-04-01T12:39:48;15.70;70.40
20091;DHT22;10205;49.678;6.560;2023-04-01T12:42:44;15.70;70.60
20091;DHT22;10205;49.678;6.560;2023-04-01T12:45:32;15.80;70.30
20091;DHT22;10205;49.678;6.560;2023-04-01T12:51:45;15.80;70.40
20091;DHT22;10205;49.678;6.560;2023-04-01T12:54:57;15.80;70.00
20091;DHT22;10205;49.678;6.560;2023-04-01T12:58:05;15.90;69.60
20091;DHT22;10205;49.678;6.560;2023-04-01T13:01:07;15.90;69.40
20091;DHT22;10205;49.678;6.560;2023-04-01T13:07:26;16.00;69.10
20091;DHT22;10205;49.678;6.560;2023-04-01T13:10:10;16.00;69.00
20091;DHT22;10205;49.678;6.560;2023-04-01T13:13:11;16.00;68.80
20091;DHT22;10205;49.678;6.560;2023-04-01T13:15:58;16.10;68.80
20091;DHT22;10205;49.678;6.560;2023-04-01T13:18:39;16.10;68.90
20091;DHT22;10205;49.678;6.560;2023-04-01T13:21:24;16.10;68.60
20091;DHT22;10205;49.678;6.560;2023-04-01T13:24:03;16.10;68.60
20091;DHT22;10205;49.678;6.560;2023-04-01T13:26:50;16.10;68.30
20091;DHT22;10205;49.678;6.560;2023-04-01T13:29:26;16.20;68.40
20091;DHT22;10205;49.678;6.560;2023-04-01T13:32:18;16.20;68.40
20091;DHT22;10205;49.678;6.560;2023-04-01T13:35:04;16.10;68.10
20091;DHT22;10205;49.678;6.560;2023-04-01T13:37:54;16.20;68.20
20091;DHT22;10205;49.678;6.560;2023-04-01T13:40:39;16.20;68.10
20091;DHT22;10205;49.678;6.560;2023-04-01T13:43:20;16.20;68.00
20091;DHT22;10205;49.678;6.560;2023-04-01T13:49:16;16.20;68.50
20091;DHT22;10205;49.678;6.560;2023-04-01T13:52:33;16.20;68.50
20091;DHT22;10205;49.678;6.560;2023-04-01T13:55:30;16.30;68.50
20091;DHT22;10205;49.678;6.560;2023-04-01T13:58:38;16.30;68.50
20091;DHT22;10205;49.678;6.560;2023-04-01T14:01:17;16.30;68.60
20091;DHT22;10205;49.678;6.560;2023-04-01T14:04:21;16.30;68.40
20091;DHT22;10205;49.678;6.560;2023-04-01T14:07:23;16.30;68.20
20091;DHT22;10205;49.678;6.560;2023-04-01T14:10:08;16.40;68.20
20091;DHT22;10205;49.678;6.560;2023-04-01T14:12:50;16.40;68.00
20091;DHT22;10205;49.678;6.560;2023-04-01T14:15:37;16.40;68.20
20091;DHT22;10205;49.678;6.560;2023-04-01T14:18:37;16.40;67.90
20091;DHT22;10205;49.678;6.560;2023-04-01T14:21:35;16.40;67.60
20091;DHT22;10205;49.678;6.560;2023-04-01T14:27:43;16.40;67.30
20091;DHT22;10205;49.678;6.560;2023-04-01T14:30:56;16.40;67.20
20091;DHT22;10205;49.678;6.560;2023-04-01T14:33:42;16.40;67.20
20091;DHT22;10205;49.678;6.560;2023-04-01T14:39:43;16.40;66.90
20091;DHT22;10205;49.678;6.560;2023-04-01T14:46:05;16.40;67.10
20091;DHT22;10205;49.678;6.560;2023-04-01T14:48:51;16.40;66.70
20091;DHT22;10205;49.678;6.560;2023-04-01T14:51:29;16.30;66.60
20091;DHT22;10205;49.678;6.560;2023-04-01T14:54:04;16.30;67.50
20091;DHT22;10205;49.678;6.560;2023-04-01T14:56:37;16.30;66.70
20091;DHT22;10205;49.678;6.560;2023-04-01T14:59:25;16.30;66.70
20091;DHT22;10205;49.678;6.560;2023-04-01T15:01:58;16.30;66.70
20091;DHT22;10205;49.678;6.560;2023-04-01T15:04:49;16.30;66.80
20091;DHT22;10205;49.678;6.560;2023-04-01T15:10:49;16.20;66.50
20091;DHT22;10205;49.678;6.560;2023-04-01T15:17:14;16.20;66.70
20091;DHT22;10205;49.678;6.560;2023-04-01T15:20:07;16.20;66.40
20091;DHT22;10205;49.678;6.560;2023-04-01T15:23:00;16.20;66.30
20091;DHT22;10205;49.678;6.560;2023-04-01T15:25:48;16.20;66.30
20091;DHT22;10205;49.678;6.560;2023-04-01T15:28:32;16.20;66.50
20091;DHT22;10205;49.678;6.560;2023-04-01T15:31:14;16.20;66.80
20091;DHT22;10205;49.678;6.560;2023-04-01T15:34:02;16.10;67.00
20091;DHT22;10205;49.678;6.560;2023-04-01T15:36:44;16.10;67.70
20091;DHT22;10205;49.678;6.560;2023-04-01T15:39:21;16.10;67.30
20091;DHT22;10205;49.678;6.560;2023-04-01T15:42:10;16.10;67.30
20091;DHT22;10205;49.678;6.560;2023-04-01T15:44:54;16.10;68.40
20091;DHT22;10205;49.678;6.560;2023-04-01T15:47:42;16.10;68.10
20091;DHT22;10205;49.678;6.560;2023-04-01T15:50:44;16.10;68.10
20091;DHT22;10205;49.678;6.560;2023-04-01T15:56:51;16.20;68.00
20091;DHT22;10205;49.678;6.560;2023-04-01T16:03:17;16.20;68.90
20091;DHT22;10205;49.678;6.560;2023-04-01T16:06:14;16.20;67.80
20091;DHT22;10205;49.678;6.560;2023-04-01T16:09:22;16.20;68.00
20091;DHT22;10205;49.678;6.560;2023-04-01T16:12:07;16.20;68.90
20091;DHT22;10205;49.678;6.560;2023-04-01T16:14:55;16.30;68.50
20091;DHT22;10205;49.678;6.560;2023-04-01T16:17:44;16.30;69.10
20091;DHT22;10205;49.678;6.560;2023-04-01T16:20:24;16.30;68.60
20091;DHT22;10205;49.678;6.560;2023-04-01T16:23:12;16.30;69.00
20091;DHT22;10205;49.678;6.560;2023-04-01T16:25:45;16.30;69.60
20091;DHT22;10205;49.678;6.560;2023-04-01T16:28:22;16.40;68.90
20091;DHT22;10205;49.678;6.560;2023-04-01T16:30:58;16.40;68.80
20091;DHT22;10205;49.678;6.560;2023-04-01T16:33:37;16.40;69.20
20091;DHT22;10205;49.678;6.560;2023-04-01T16:36:21;16.40;69.40
20091;DHT22;10205;49.678;6.560;2023-04-01T16:39:06;16.50;68.10
20091;DHT22;10205;49.678;6.560;2023-04-01T16:41:48;16.50;68.00
20091;DHT22;10205;49.678;6.560;2023-04-01T16:44:20;16.50;68.00
20091;DHT22;10205;49.678;6.560;2023-04-01T16:46:51;16.60;68.20
20091;DHT22;10205;49.678;6.560;2023-04-01T16:49:28;16.60;67.80
20091;DHT22;10205;49.678;6.560;2023-04-01T16:52:17;16.60;67.40
20091;DHT22;10205;49.678;6.560;2023-04-01T16:55:03;16.50;68.00
20091;DHT22;10205;49.678;6.560;2023-04-01T16:57:46;16.50;67.60
20091;DHT22;10205;49.678;6.560;2023-04-01T17:00:24;16.50;67.90
20091;DHT22;10205;49.678;6.560;2023-04-01T17:03:02;16.60;67.90
20091;DHT22;10205;49.678;6.560;2023-04-01T17:05:52;16.50;68.20
20091;DHT22;10205;49.678;6.560;2023-04-01T17:08:49;16.50;67.40
20091;DHT22;10205;49.678;6.560;2023-04-01T17:11:40;16.50;67.50
20091;DHT22;10205;49.678;6.560;2023-04-01T17:14:20;16.50;69.10
20091;DHT22;10205;49.678;6.560;2023-04-01T17:19:44;16.50;68.50
20091;DHT22;10205;49.678;6.560;2023-04-01T17:22:26;16.50;67.90
20091;DHT22;10205;49.678;6.560;2023-04-01T17:25:11;16.50;68.30
20091;DHT22;10205;49.678;6.560;2023-04-01T17:27:54;16.50;68.70
20091;DHT22;10205;49.678;6.560;2023-04-01T17:30:34;16.50;68.30
20091;DHT22;10205;49.678;6.560;2023-04-01T17:33:14;16.50;67.70
20091;DHT22;10205;49.678;6.560;2023-04-01T17:35:58;16.50;68.30
20091;DHT22;10205;49.678;6.560;2023-04-01T17:38:50;16.50;68.50
20091;DHT22;10205;49.678;6.560;2023-04-01T17:41:34;16.50;68.10
20091;DHT22;10205;49.678;6.560;2023-04-01T17:44:17;16.50;68.30
20091;DHT22;10205;49.678;6.560;2023-04-01T17:49:58;16.60;68.60
20091;DHT22;10205;49.678;6.560;2023-04-01T17:52:34;16.50;68.10
20091;DHT22;10205;49.678;6.560;2023-04-01T17:55:32;16.60;68.00
20091;DHT22;10205;49.678;6.560;2023-04-01T17:58:21;16.50;67.60
20091;DHT22;10205;49.678;6.560;2023-04-01T18:01:14;16.50;68.10
20091;DHT22;10205;49.678;6.560;2023-04-01T18:04:25;16.40;67.80
20091;DHT22;10205;49.678;6.560;2023-04-01T18:07:26;16.40;68.20
20091;DHT22;10205;49.678;6.560;2023-04-01T18:10:17;16.40;68.50
20091;DHT22;10205;49.678;6.560;2023-04-01T18:16:29;16.40;68.00
20091;DHT22;10205;49.678;6.560;2023-04-01T18:19:16;16.40;67.90
20091;DHT22;10205;49.678;6.560;2023-04-01T18:21:54;16.40;68.30
20091;DHT22;10205;49.678;6.560;2023-04-01T18:24:29;16.40;68.30
20091;DHT22;10205;49.678;6.560;2023-04-01T18:27:03;16.40;68.00
20091;DHT22;10205;49.678;6.560;2023-04-01T18:29:37;16.40;69.10
20091;DHT22;10205;49.678;6.560;2023-04-01T18:32:15;16.40;68.40
20091;DHT22;10205;49.678;6.560;2023-04-01T18:34:55;16.30;68.00
20091;DHT22;10205;49.678;6.560;2023-04-01T18:37:31;16.30;67.80
20091;DHT22;10205;49.678;6.560;2023-04-01T18:40:13;16.30;67.80
20091;DHT22;10205;49.678;6.560;2023-04-01T18:42:56;16.30;68.30